Time;durP1;ratioP1;P1;durP2;ratioP2;P2;SDS_P1;SDS_P2;PMS_P1;PMS_P2;Temp;Humidity;BMP_temperature;BMP_pressure;BME280_temperature;BME280_humidity;BME280_pressure;Samples;Min_cycle;Max_cycle;Signal;HPM_P1;HPM_P2
2021/05/07 00:04:37;;;;;;;10.85;3.70;;;10.80;93.70;;;;;;4975218;28;20403;-87
2021/05/07 00:10:26;;;;;;;8.45;2.80;;;10.10;93.70;;;;;;4975006;28;20085;-86
2021/05/07 00:16:17;;;;;;;6.15;2.28;;;10.00;93.60;;;;;;4978882;28;20050;-86
2021/05/07 00:22:05;;;;;;;7.57;2.65;;;10.00;93.50;;;;;;4978849;28;20030;-86
2021/05/07 00:28:07;;;;;;;11.82;4.25;;;10.00;93.70;;;;;;4978365;28;20035;-89
2021/05/07 00:33:56;;;;;;;7.75;3.08;;;10.00;93.80;;;;;;4978309;28;20157;-87
2021/05/07 00:39:45;;;;;;;9.35;3.22;;;9.90;93.50;;;;;;4978466;28;20170;-87
2021/05/07 00:45:33;;;;;;;5.97;2.60;;;9.90;93.70;;;;;;4980465;28;20057;-86
2021/05/07 00:51:22;;;;;;;3.92;2.08;;;9.70;93.50;;;;;;4981897;28;20076;-87
2021/05/07 00:57:12;;;;;;;6.28;2.20;;;9.70;93.50;;;;;;4980733;28;20054;-87
2021/05/07 01:03:01;;;;;;;5.40;2.40;;;9.70;93.30;;;;;;4978316;28;20057;-87
2021/05/07 01:08:49;;;;;;;2.60;1.15;;;9.30;93.20;;;;;;4978022;28;20081;-89
2021/05/07 01:14:39;;;;;;;7.32;2.63;;;9.20;93.20;;;;;;4977669;28;20046;-88
2021/05/07 01:24:16;;;;;;;3.25;1.73;;;9.10;93.50;;;;;;4977465;28;20038;-88
2021/05/07 01:30:35;;;;;;;6.05;2.58;;;9.10;93.60;;;;;;4977252;28;20045;-88
2021/05/07 01:36:24;;;;;;;5.78;2.33;;;9.10;93.50;;;;;;4977141;28;20054;-88
2021/05/07 01:42:13;;;;;;;9.98;2.78;;;9.10;93.50;;;;;;4976902;28;20030;-86
2021/05/07 01:48:03;;;;;;;13.05;3.70;;;9.10;93.50;;;;;;4977040;28;20038;-88
2021/05/07 01:53:52;;;;;;;11.05;3.42;;;9.00;93.60;;;;;;4977105;28;20607;-87
2021/05/07 01:59:41;;;;;;;11.98;3.40;;;9.00;93.40;;;;;;4977041;28;20033;-88
2021/05/07 02:05:32;;;;;;;14.77;3.50;;;9.00;93.50;;;;;;4976740;28;20101;-88
2021/05/07 02:11:20;;;;;;;11.02;3.45;;;9.00;93.60;;;;;;4976556;28;20029;-87
2021/05/07 02:17:10;;;;;;;12.32;3.90;;;9.00;93.50;;;;;;4976537;28;20492;-90
2021/05/07 02:27:00;;;;;;;10.73;3.33;;;9.00;93.80;;;;;;4978772;28;20135;-86
2021/05/07 02:32:49;;;;;;;12.85;4.50;;;9.00;93.50;;;;;;4976381;28;20026;-89
2021/05/07 02:38:40;;;;;;;14.35;5.05;;;9.00;93.60;;;;;;4976483;28;20442;-89
2021/05/07 02:44:29;;;;;;;16.27;5.40;;;8.90;93.40;;;;;;4976008;28;20034;-89
2021/05/07 02:50:19;;;;;;;19.77;5.97;;;8.80;93.50;;;;;;4976017;28;20114;-89
2021/05/07 02:56:08;;;;;;;17.52;5.88;;;8.80;93.50;;;;;;4975906;28;20431;-89
2021/05/07 03:01:56;;;;;;;8.50;3.13;;;8.70;93.40;;;;;;4975988;28;20037;-87
2021/05/07 03:07:45;;;;;;;3.65;1.83;;;8.60;93.40;;;;;;4975584;28;20034;-87
2021/05/07 03:13:33;;;;;;;21.33;5.95;;;8.60;93.40;;;;;;4975727;28;20551;-86
2021/05/07 03:19:22;;;;;;;12.25;3.72;;;8.60;93.40;;;;;;4975431;28;20037;-89
2021/05/07 03:29:08;;;;;;;22.98;6.05;;;8.50;93.50;;;;;;4975515;28;20070;-88
2021/05/07 03:34:56;;;;;;;17.83;6.05;;;8.20;93.50;;;;;;4975190;28;20053;-88
2021/05/07 03:40:46;;;;;;;18.65;7.55;;;8.50;93.60;;;;;;4975168;28;20423;-88
2021/05/07 03:46:35;;;;;;;5.05;2.30;;;8.50;93.50;;;;;;4974989;28;20534;-88
2021/05/07 03:52:23;;;;;;;17.80;5.78;;;8.40;93.50;;;;;;4974899;28;20046;-88
2021/05/07 03:58:13;;;;;;;18.48;5.43;;;8.40;93.50;;;;;;4974788;28;20030;-87
2021/05/07 04:04:06;;;;;;;20.63;5.93;;;8.50;93.60;;;;;;4974976;28;20387;-87
2021/05/07 04:10:06;;;;;;;28.02;8.10;;;8.50;93.70;;;;;;4974652;28;20034;-87
2021/05/07 04:15:54;;;;;;;22.60;6.85;;;8.60;93.70;;;;;;4974604;28;20445;-87
2021/05/07 04:21:43;;;;;;;21.20;6.25;;;8.60;93.60;;;;;;4974820;28;20095;-86
2021/05/07 04:31:32;;;;;;;20.13;7.22;;;8.70;93.70;;;;;;4974566;28;20550;-87
2021/05/07 04:37:23;;;;;;;26.65;7.07;;;8.70;93.70;;;;;;4974418;28;20069;-87
2021/05/07 04:43:12;;;;;;;20.45;6.63;;;8.70;93.60;;;;;;4974388;28;20034;-86
2021/05/07 04:49:00;;;;;;;21.83;6.85;;;8.80;93.80;;;;;;4974512;28;20046;-88
2021/05/07 04:54:48;;;;;;;21.42;7.78;;;8.90;93.80;;;;;;4974184;28;20050;-88
2021/05/07 05:00:37;;;;;;;15.98;6.30;;;9.00;93.60;;;;;;4976863;28;20034;-88
2021/05/07 05:06:25;;;;;;;20.33;8.07;;;9.00;93.60;;;;;;4983652;28;20080;-88
2021/05/07 05:12:14;;;;;;;17.80;6.78;;;9.00;93.70;;;;;;4984542;28;20050;-87
2021/05/07 05:18:03;;;;;;;23.13;7.78;;;9.00;93.50;;;;;;4977826;28;20054;-84
2021/05/07 05:23:53;;;;;;;15.75;5.15;;;9.10;94.00;;;;;;4977818;28;20042;-85
2021/05/07 05:34:01;;;;;;;11.80;3.75;;;9.20;93.70;;;;;;4977518;28;20042;-87
2021/05/07 05:39:50;;;;;;;20.65;6.10;;;9.10;93.50;;;;;;4977216;28;20034;-82
2021/05/07 05:45:45;;;;;;;17.23;5.88;;;9.10;93.50;;;;;;4977145;28;20086;-83
2021/05/07 05:51:34;;;;;;;21.65;6.97;;;9.10;93.60;;;;;;4977563;28;20041;-81
2021/05/07 05:57:22;;;;;;;16.30;5.80;;;9.40;93.90;;;;;;4977257;28;20120;-82
2021/05/07 06:03:10;;;;;;;12.88;5.15;;;9.50;93.70;;;;;;4977228;28;20100;-81
2021/05/07 06:08:59;;;;;;;25.10;7.55;;;9.60;93.60;;;;;;4976707;28;20375;-85
2021/05/07 06:14:47;;;;;;;9.32;3.33;;;9.60;93.50;;;;;;4976824;28;20046;-85
2021/05/07 06:20:35;;;;;;;16.88;5.00;;;9.60;93.50;;;;;;4976862;28;20093;-86
2021/05/07 06:26:24;;;;;;;5.90;2.63;;;9.60;93.40;;;;;;4976568;28;20034;-84
2021/05/07 06:36:06;;;;;;;14.65;6.50;;;9.90;94.20;;;;;;4976195;28;20058;-85
2021/05/07 06:41:58;;;;;;;12.52;3.83;;;10.20;93.80;;;;;;4976397;28;20089;-88
2021/05/07 06:47:47;;;;;;;17.77;5.80;;;10.00;93.00;;;;;;4976038;28;20131;-85
2021/05/07 06:53:42;;;;;;;11.10;3.72;;;9.70;92.90;;;;;;4975873;28;20065;-86
2021/05/07 06:59:35;;;;;;;15.75;4.85;;;9.40;93.10;;;;;;4975718;28;20049;-86
2021/05/07 07:05:23;;;;;;;20.17;6.43;;;9.30;93.00;;;;;;4975863;28;20094;-85
2021/05/07 07:11:12;;;;;;;15.63;5.97;;;8.60;93.10;;;;;;4975573;28;20109;-84
2021/05/07 07:17:02;;;;;;;15.90;5.43;;;9.20;93.40;;;;;;4975615;28;20101;-84
2021/05/07 07:22:51;;;;;;;25.20;7.43;;;9.00;93.40;;;;;;4975505;28;20038;-84
2021/05/07 07:28:41;;;;;;;17.45;6.30;;;9.50;93.70;;;;;;4975456;28;20053;-84
2021/05/07 07:38:31;;;;;;;6.47;2.58;;;10.50;94.00;;;;;;4975489;28;20061;-83
2021/05/07 07:44:25;;;;;;;12.38;5.45;;;10.70;94.00;;;;;;4975184;28;20033;-86
2021/05/07 07:50:15;;;;;;;14.00;5.72;;;10.80;93.10;;;;;;4975881;28;20435;-85
2021/05/07 07:56:10;;;;;;;15.63;6.15;;;11.00;93.80;;;;;;4976054;28;20049;-86
2021/05/07 08:01:58;;;;;;;18.42;6.50;;;11.00;93.20;;;;;;4975218;28;20442;-85
2021/05/07 08:07:50;;;;;;;15.13;4.70;;;11.00;93.20;;;;;;4975141;28;20038;-86
2021/05/07 08:14:02;;;;;;;11.38;4.32;;;10.50;92.50;;;;;;4975165;28;20486;-87
2021/05/07 08:30:13;;;;;;;7.95;3.28;;;11.30;93.30;;;;;;4980828;28;20097;-87
2021/05/07 08:53:09;;;;;;;11.20;4.82;;;11.70;92.50;;;;;;4925874;29;20043;-85
2021/05/07 08:59:39;;;;;;;;;;;;;;;;;;;;;
2021/05/07 09:12:25;;;;;;;15.13;6.22;;;12.30;92.40;;;;;;4924658;29;20060;-87
2021/05/07 09:18:31;;;;;;;12.60;5.60;;;12.30;92.30;;;;;;4985859;28;20030;-86
2021/05/07 09:25:00;;;;;;;15.90;6.55;;;11.50;91.70;;;;;;4985426;28;20098;-85
2021/05/07 09:30:52;;;;;;;11.35;4.75;;;12.00;93.00;;;;;;4984300;28;20057;-85
2021/05/07 09:40:20;;;;;;;17.75;7.47;;;13.80;93.60;;;;;;4985690;28;20058;-87
2021/05/07 09:46:10;;;;;;;11.75;6.60;;;13.20;92.70;;;;;;4980259;28;20037;-84
2021/05/07 09:52:03;;;;;;;8.32;3.17;;;13.00;93.00;;;;;;4980957;28;20034;-85
2021/05/07 09:58:02;;;;;;;10.30;4.22;;;13.10;93.00;;;;;;4983483;28;20026;-86
2021/05/07 10:04:09;;;;;;;13.23;7.18;;;12.80;91.10;;;;;;4977359;28;20085;-84
2021/05/07 10:10:09;;;;;;;8.23;3.72;;;12.60;92.10;;;;;;4976988;28;20049;-83
2021/05/07 10:16:09;;;;;;;11.55;5.68;;;12.80;92.20;;;;;;4976624;28;20073;-85
2021/05/07 10:22:06;;;;;;;15.80;7.13;;;12.80;93.00;;;;;;4976768;28;20086;-85
2021/05/07 10:28:14;;;;;;;12.43;6.18;;;13.30;92.60;;;;;;4976313;28;20110;-85
2021/05/07 10:34:11;;;;;;;10.20;4.95;;;13.40;92.10;;;;;;4981914;28;20034;-86
2021/05/07 10:44:05;;;;;;;10.77;5.22;;;13.30;91.50;;;;;;4958784;28;20057;-84
2021/05/07 10:49:56;;;;;;;15.95;7.97;;;13.70;92.90;;;;;;4976142;28;20073;-84
2021/05/07 10:55:44;;;;;;;12.38;6.18;;;14.10;92.60;;;;;;4975680;28;20041;-85
2021/05/07 11:01:34;;;;;;;18.25;8.15;;;13.80;90.60;;;;;;4975955;28;20034;-85
2021/05/07 11:07:32;;;;;;;9.65;6.03;;;14.00;93.00;;;;;;4975916;28;20041;-85
2021/05/07 11:20:07;;;;;;;19.70;9.18;;;15.20;90.70;;;;;;4940519;28;20030;-85
2021/05/07 11:26:03;;;;;;;14.15;7.22;;;15.00;90.90;;;;;;4975514;28;20113;-84
2021/05/07 11:31:52;;;;;;;14.45;9.05;;;15.50;93.30;;;;;;4975189;28;20053;-84
2021/05/07 11:37:44;;;;;;;11.05;5.10;;;17.10;93.00;;;;;;4975139;28;20054;-85
2021/05/07 11:44:07;;;;;;;8.77;4.88;;;18.60;92.50;;;;;;4974479;28;20061;-87
2021/05/07 11:49:56;;;;;;;13.20;6.03;;;18.20;90.50;;;;;;4974877;28;20033;-86
2021/05/07 11:55:44;;;;;;;9.55;4.70;;;18.90;92.50;;;;;;4974984;28;20094;-86
2021/05/07 12:01:35;;;;;;;9.57;4.80;;;19.60;94.20;;;;;;4974808;28;20106;-87
2021/05/07 12:07:35;;;;;;;9.68;4.25;;;21.50;92.50;;;;;;4974808;28;20050;-87
2021/05/07 12:13:25;;;;;;;11.88;5.30;;;21.00;86.30;;;;;;4975363;28;20078;-87
2021/05/07 12:19:20;;;;;;;10.82;4.00;;;22.10;90.90;;;;;;4974789;28;20049;-86
2021/05/07 12:25:18;;;;;;;7.45;3.88;;;20.60;87.50;;;;;;4974940;28;20378;-86
2021/05/07 12:31:10;;;;;;;7.43;3.47;;;21.50;86.50;;;;;;4975369;28;20054;-87
2021/05/07 12:37:01;;;;;;;9.15;4.18;;;20.00;83.80;;;;;;4974456;28;20097;-87
2021/05/07 12:42:50;;;;;;;10.85;4.28;;;18.80;83.10;;;;;;4975017;28;20034;-87
2021/05/07 12:48:38;;;;;;;8.05;3.67;;;19.90;89.90;;;;;;4974899;28;20041;-86
2021/05/07 12:54:26;;;;;;;8.10;3.08;;;19.80;86.90;;;;;;4974351;28;20034;-86
2021/05/07 13:00:16;;;;;;;6.40;2.78;;;20.50;82.40;;;;;;4974602;28;20033;-85
2021/05/07 13:06:07;;;;;;;7.22;3.30;;;18.10;78.20;;;;;;4974911;28;20097;-85
2021/05/07 13:11:56;;;;;;;7.60;3.65;;;16.30;80.40;;;;;;4979332;28;20121;-85
2021/05/07 13:17:44;;;;;;;4.95;2.72;;;15.20;78.60;;;;;;4974508;28;20033;-86
2021/05/07 13:23:33;;;;;;;8.82;3.55;;;12.70;72.40;;;;;;4977495;28;20033;-87
2021/05/07 13:29:23;;;;;;;5.82;3.08;;;11.20;78.30;;;;;;4977491;28;20042;-88
2021/05/07 13:35:13;;;;;;;8.63;4.30;;;10.60;80.70;;;;;;4977790;28;20042;-84
2021/05/07 13:42:11;;;;;;;7.82;4.45;;;12.40;90.90;;;;;;4977478;28;20037;-87
2021/05/07 13:44:38;;;;;;;8.02;4.30;;;15.30;93.50;;;;;;4949154;28;20050;-87
2021/05/07 13:50:53;;;;;;;5.20;3.15;;;19.20;92.70;;;;;;4978246;28;20042;-87
2021/05/07 13:56:42;;;;;;;6.32;3.22;;;21.70;90.90;;;;;;4977427;28;20085;-86
2021/05/07 14:09:14;;;;;;;9.43;3.90;;;23.50;70.60;;;;;;4880295;29;20650;-85
2021/05/07 14:15:04;;;;;;;7.45;3.83;;;19.80;75.10;;;;;;4879617;29;20052;-86
2021/05/07 14:20:52;;;;;;;7.97;4.25;;;21.60;93.40;;;;;;4936400;29;20388;-86
2021/05/07 14:27:28;;;;;;;7.07;3.80;;;25.10;87.50;;;;;;4937522;29;20026;-87
2021/05/07 14:33:20;;;;;;;3.55;2.33;;;26.60;85.60;;;;;;4975852;28;20514;-85
2021/05/07 14:39:15;;;;;;;5.35;2.95;;;28.30;84.10;;;;;;4976160;28;20158;-86
2021/05/07 14:45:14;;;;;;;5.18;2.50;;;29.80;80.70;;;;;;4975224;28;20365;-85
2021/05/07 14:51:15;;;;;;;7.45;2.50;;;27.60;76.40;;;;;;4975854;28;20070;-85
2021/05/07 14:57:50;;;;;;;6.88;3.35;;;28.20;77.90;;;;;;5090928;28;20105;-85
2021/05/07 15:03:39;;;;;;;6.80;3.08;;;27.80;81.20;;;;;;5090914;28;20116;-83
2021/05/07 15:09:31;;;;;;;5.80;2.72;;;25.60;66.60;;;;;;5090812;28;20055;-85
2021/05/07 15:15:20;;;;;;;5.43;2.90;;;21.60;66.60;;;;;;5090678;28;20063;-85
2021/05/07 15:21:12;;;;;;;8.55;3.30;;;19.00;73.20;;;;;;5090637;28;20031;-85
2021/05/07 15:27:02;;;;;;;4.68;2.25;;;18.00;73.60;;;;;;5090832;28;20039;-85
2021/05/07 15:32:53;;;;;;;8.95;3.72;;;16.50;76.70;;;;;;5090333;28;20082;-85
2021/05/07 15:38:47;;;;;;;6.68;2.97;;;18.60;80.80;;;;;;5090698;28;20092;-86
2021/05/07 15:44:40;;;;;;;9.25;5.00;;;20.40;91.90;;;;;;5090183;28;20059;-85
2021/05/07 15:50:38;;;;;;;6.35;3.08;;;23.20;85.90;;;;;;5090582;28;20071;-85
2021/05/07 15:56:27;;;;;;;8.50;3.13;;;23.80;78.70;;;;;;5089996;28;20028;-84
2021/05/07 16:02:25;;;;;;;3.75;2.05;;;23.50;77.30;;;;;;5090005;28;20165;-86
2021/05/07 16:08:13;;;;;;;4.47;2.50;;;22.90;70.10;;;;;;5076889;28;20035;-86
2021/05/07 16:14:12;;;;;;;4.93;2.10;;;22.70;73.40;;;;;;5076981;28;20525;-86
2021/05/07 16:20:00;;;;;;;8.68;3.72;;;19.50;68.30;;;;;;5074326;28;20112;-85
2021/05/07 16:25:48;;;;;;;9.05;3.55;;;19.20;78.90;;;;;;5073803;28;20480;-86
2021/05/07 16:37:49;;;;;;;5.72;2.88;;;21.10;79.40;;;;;;5053638;28;19911;-85
2021/05/07 16:43:38;;;;;;;4.95;2.45;;;20.10;72.20;;;;;;5053411;28;20116;-85
2021/05/07 16:49:26;;;;;;;6.30;3.20;;;19.20;73.70;;;;;;5053393;28;20062;-84
2021/05/07 16:59:20;;;;;;;7.82;3.35;;;17.30;75.00;;;;;;5075019;28;20582;-86
2021/05/07 17:05:16;;;;;;;7.35;3.25;;;17.60;77.70;;;;;;5075191;28;20039;-85
2021/05/07 17:11:04;;;;;;;8.30;3.85;;;16.20;73.80;;;;;;5074910;28;20040;-85
2021/05/07 17:16:53;;;;;;;8.55;3.72;;;15.20;76.10;;;;;;5074051;28;20059;-87
2021/05/07 17:22:44;;;;;;;10.18;4.45;;;14.60;81.10;;;;;;5075119;28;20042;-86
2021/05/07 17:28:32;;;;;;;10.40;5.22;;;15.70;83.00;;;;;;5074996;28;20075;-85
2021/05/07 17:34:22;;;;;;;7.90;3.70;;;15.60;79.40;;;;;;5074478;28;20067;-85
2021/05/07 17:40:12;;;;;;;9.98;4.50;;;14.70;76.40;;;;;;5074759;28;20062;-86
2021/05/07 17:46:00;;;;;;;8.43;3.88;;;13.70;78.70;;;;;;5074285;28;20059;-86
2021/05/07 17:51:49;;;;;;;7.55;3.38;;;13.10;79.30;;;;;;5074268;28;20058;-86
2021/05/07 18:01:39;;;;;;;12.25;5.78;;;12.60;81.10;;;;;;5074787;28;20047;-86
2021/05/07 18:07:27;;;;;;;12.27;6.22;;;12.50;82.20;;;;;;5074220;28;20066;-86
2021/05/07 18:13:17;;;;;;;9.10;4.60;;;12.20;81.50;;;;;;5073772;28;20051;-85
2021/05/07 18:19:10;;;;;;;11.50;5.13;;;11.90;82.10;;;;;;5073834;28;20055;-86
2021/05/07 18:24:59;;;;;;;12.27;6.47;;;11.70;82.50;;;;;;5073800;28;20403;-86
2021/05/07 18:30:48;;;;;;;11.05;5.47;;;11.30;82.50;;;;;;5074115;28;20522;-87
2021/05/07 18:36:37;;;;;;;11.77;6.32;;;11.00;82.90;;;;;;5073850;28;20085;-87
2021/05/07 18:42:25;;;;;;;13.48;5.90;;;10.80;82.90;;;;;;5073510;28;20032;-91
2021/05/07 18:48:13;;;;;;;13.90;7.25;;;10.50;83.30;;;;;;5075006;28;20063;-91
2021/05/07 18:54:15;;;;;;;13.48;6.38;;;10.30;83.60;;;;;;5074897;28;20079;-93
2021/05/07 19:04:05;;;;;;;20.17;9.73;;;10.00;83.70;;;;;;5073720;28;20031;-89
2021/05/07 19:09:54;;;;;;;13.13;6.18;;;9.70;84.00;;;;;;5073402;28;20040;-89
2021/05/07 19:15:43;;;;;;;13.40;5.85;;;9.50;84.20;;;;;;5073471;28;20051;-89
2021/05/07 19:21:34;;;;;;;12.30;6.22;;;9.30;84.30;;;;;;5073250;28;20031;-88
2021/05/07 19:27:24;;;;;;;11.05;5.57;;;9.10;84.60;;;;;;5074573;28;20081;-88
2021/05/07 19:33:13;;;;;;;13.25;5.40;;;8.90;84.60;;;;;;5074053;28;20043;-93
2021/05/07 19:39:01;;;;;;;12.45;6.43;;;8.90;85.30;;;;;;5075204;28;20503;-93
2021/05/07 19:44:50;;;;;;;13.73;6.70;;;8.70;84.70;;;;;;5077753;28;20094;-93
2021/05/07 19:50:39;;;;;;;12.40;6.35;;;8.40;84.40;;;;;;5078796;28;20035;-91
2021/05/07 19:56:31;;;;;;;14.55;8.00;;;8.20;84.80;;;;;;5077358;28;20120;-88
2021/05/07 20:06:21;;;;;;;15.18;7.38;;;7.80;84.70;;;;;;5077508;28;20047;-92
2021/05/07 20:12:10;;;;;;;13.65;6.57;;;7.50;84.80;;;;;;5076394;28;20036;-89
2021/05/07 20:17:59;;;;;;;16.35;8.23;;;7.40;85.40;;;;;;5077267;28;20036;-93
2021/05/07 20:23:48;;;;;;;13.48;7.15;;;7.30;85.60;;;;;;5076679;28;20027;-90
2021/05/07 20:29:37;;;;;;;16.40;7.40;;;7.20;85.60;;;;;;5077355;28;20495;-93
2021/05/07 20:35:25;;;;;;;13.55;7.15;;;7.00;85.50;;;;;;5077845;28;20120;-94
2021/05/07 20:41:14;;;;;;;15.68;7.13;;;6.90;85.70;;;;;;5077789;28;20089;-94
2021/05/07 20:47:03;;;;;;;18.58;7.97;;;6.70;85.70;;;;;;5077494;28;20040;-95
2021/05/07 20:52:53;;;;;;;13.02;5.93;;;6.60;86.00;;;;;;5076751;28;20051;-93
2021/05/07 20:58:41;;;;;;;14.15;6.93;;;6.50;85.80;;;;;;5098322;28;20034;-93
2021/05/07 21:08:25;;;;;;;15.40;6.97;;;6.30;86.00;;;;;;5081556;28;20104;-94
2021/05/07 21:14:13;;;;;;;13.35;6.63;;;6.20;86.20;;;;;;5078499;28;20083;-93
2021/05/07 21:20:06;;;;;;;12.05;5.88;;;6.10;86.20;;;;;;5078316;28;20402;-93
2021/05/07 21:25:57;;;;;;;13.48;7.00;;;5.90;85.90;;;;;;5075208;28;20031;-93
2021/05/07 21:31:45;;;;;;;13.45;7.22;;;5.70;85.90;;;;;;5075313;28;20051;-92
2021/05/07 21:37:33;;;;;;;14.45;7.32;;;5.60;85.90;;;;;;5075700;28;20089;-93
2021/05/07 21:43:38;;;;;;;;;;;;;;;;;;;;;
2021/05/07 21:49:28;;;;;;;13.75;6.80;;;5.20;85.80;;;;;;5075138;28;20178;-91
2021/05/07 21:55:17;;;;;;;15.00;7.18;;;5.00;85.80;;;;;;5075204;28;20024;-91
2021/05/07 22:01:06;;;;;;;15.18;7.47;;;4.90;86.00;;;;;;5077098;28;20089;-91
2021/05/07 22:10:57;;;;;;;16.05;7.95;;;4.60;85.80;;;;;;5089928;28;20058;-90
2021/05/07 22:16:46;;;;;;;17.13;8.20;;;4.40;86.00;;;;;;5086660;28;20043;-88
2021/05/07 22:22:39;;;;;;;18.10;7.85;;;4.30;86.00;;;;;;5075398;28;20182;-91
2021/05/07 22:28:27;;;;;;;18.23;7.82;;;4.10;86.10;;;;;;5074605;28;20119;-93
2021/05/07 22:34:16;;;;;;;17.48;8.10;;;4.00;86.30;;;;;;5074853;28;20055;-92
2021/05/07 22:40:08;;;;;;;17.67;8.65;;;4.00;86.30;;;;;;5074876;28;20039;-90
2021/05/07 22:45:57;;;;;;;14.80;7.50;;;3.90;86.50;;;;;;5075407;28;20106;-95
2021/05/07 22:51:51;;;;;;;16.20;7.78;;;3.80;86.40;;;;;;5074660;28;20039;-92
2021/05/07 22:57:40;;;;;;;17.17;7.72;;;3.60;86.20;;;;;;5074457;28;20028;-93
2021/05/07 23:09:48;;;;;;;14.57;6.85;;;3.40;86.50;;;;;;5034313;28;20068;-93
2021/05/07 23:15:36;;;;;;;16.48;7.18;;;3.30;86.50;;;;;;5038297;28;20033;-94
2021/05/07 23:21:26;;;;;;;13.70;6.60;;;3.20;86.30;;;;;;5038420;28;20039;-94
2021/05/07 23:27:14;;;;;;;15.43;7.20;;;3.10;86.40;;;;;;5038445;28;20059;-94
2021/05/07 23:33:03;;;;;;;13.63;6.40;;;3.00;86.80;;;;;;5037979;28;20125;-93
2021/05/07 23:38:53;;;;;;;14.25;6.97;;;2.90;86.60;;;;;;5037674;28;20099;-91
2021/05/07 23:44:42;;;;;;;15.90;7.13;;;2.90;86.90;;;;;;5037842;28;20040;-91
2021/05/07 23:50:31;;;;;;;15.52;7.38;;;2.80;86.60;;;;;;5039912;28;20125;-91
2021/05/07 23:56:21;;;;;;;18.20;7.32;;;2.70;86.60;;;;;;5037261;28;20112;-90
